sensor_id;sensor_type;location;lat;lon;timestamp;P1;durP1;ratioP1;P2;durP2;ratioP2
78372;SDS011;67656;52.074;4.758;2023-05-07T00:04:45;42.72;;;16.65;;
78372;SDS011;67656;52.074;4.758;2023-05-07T00:09:45;44.30;;;16.10;;
78372;SDS011;67656;52.074;4.758;2023-05-07T00:14:46;37.70;;;15.60;;
78372;SDS011;67656;52.074;4.758;2023-05-07T00:19:46;40.35;;;15.18;;
78372;SDS011;67656;52.074;4.758;2023-05-07T00:24:47;37.78;;;15.48;;
78372;SDS011;67656;52.074;4.758;2023-05-07T00:29:47;36.17;;;14.45;;
78372;SDS011;67656;52.074;4.758;2023-05-07T00:34:47;35.10;;;14.90;;
78372;SDS011;67656;52.074;4.758;2023-05-07T00:39:48;35.70;;;14.60;;
78372;SDS011;67656;52.074;4.758;2023-05-07T00:44:48;33.45;;;14.32;;
78372;SDS011;67656;52.074;4.758;2023-05-07T00:50:06;38.25;;;15.70;;
78372;SDS011;67656;52.074;4.758;2023-05-07T00:55:07;38.97;;;16.55;;
78372;SDS011;67656;52.074;4.758;2023-05-07T01:00:08;40.85;;;16.80;;
78372;SDS011;67656;52.074;4.758;2023-05-07T01:05:10;42.45;;;17.30;;
78372;SDS011;67656;52.074;4.758;2023-05-07T01:10:12;48.50;;;19.17;;
78372;SDS011;67656;52.074;4.758;2023-05-07T01:15:13;50.55;;;19.55;;
78372;SDS011;67656;52.074;4.758;2023-05-07T01:20:14;49.80;;;20.55;;
78372;SDS011;67656;52.074;4.758;2023-05-07T01:25:16;52.00;;;20.02;;
78372;SDS011;67656;52.074;4.758;2023-05-07T01:30:20;48.83;;;20.25;;
78372;SDS011;67656;52.074;4.758;2023-05-07T01:35:24;46.38;;;19.23;;
78372;SDS011;67656;52.074;4.758;2023-05-07T01:40:27;43.75;;;18.98;;
78372;SDS011;67656;52.074;4.758;2023-05-07T01:45:27;43.38;;;18.85;;
78372;SDS011;67656;52.074;4.758;2023-05-07T01:50:33;42.95;;;18.98;;
78372;SDS011;67656;52.074;4.758;2023-05-07T01:55:34;42.80;;;17.63;;
78372;SDS011;67656;52.074;4.758;2023-05-07T02:00:35;43.28;;;18.27;;
78372;SDS011;67656;52.074;4.758;2023-05-07T02:05:35;43.65;;;19.05;;
78372;SDS011;67656;52.074;4.758;2023-05-07T02:10:42;39.85;;;17.80;;
78372;SDS011;67656;52.074;4.758;2023-05-07T02:15:43;39.42;;;18.20;;
78372;SDS011;67656;52.074;4.758;2023-05-07T02:20:44;40.28;;;17.70;;
78372;SDS011;67656;52.074;4.758;2023-05-07T02:25:44;39.45;;;18.30;;
78372;SDS011;67656;52.074;4.758;2023-05-07T02:30:45;40.67;;;17.77;;
78372;SDS011;67656;52.074;4.758;2023-05-07T02:35:45;39.47;;;17.98;;
78372;SDS011;67656;52.074;4.758;2023-05-07T02:40:48;39.15;;;17.58;;
78372;SDS011;67656;52.074;4.758;2023-05-07T02:45:49;40.53;;;18.17;;
78372;SDS011;67656;52.074;4.758;2023-05-07T02:51:00;40.00;;;16.17;;
78372;SDS011;67656;52.074;4.758;2023-05-07T02:56:03;37.57;;;17.23;;
78372;SDS011;67656;52.074;4.758;2023-05-07T03:01:04;35.95;;;16.02;;
78372;SDS011;67656;52.074;4.758;2023-05-07T03:06:25;36.47;;;16.15;;
78372;SDS011;67656;52.074;4.758;2023-05-07T03:11:26;35.90;;;16.50;;
78372;SDS011;67656;52.074;4.758;2023-05-07T03:16:26;33.40;;;16.75;;
78372;SDS011;67656;52.074;4.758;2023-05-07T03:21:27;29.67;;;14.60;;
78372;SDS011;67656;52.074;4.758;2023-05-07T03:26:28;34.33;;;15.63;;
78372;SDS011;67656;52.074;4.758;2023-05-07T03:31:28;33.00;;;14.88;;
78372;SDS011;67656;52.074;4.758;2023-05-07T03:36:29;31.48;;;15.25;;
78372;SDS011;67656;52.074;4.758;2023-05-07T03:42:08;31.88;;;14.80;;
78372;SDS011;67656;52.074;4.758;2023-05-07T03:47:22;29.58;;;14.13;;
78372;SDS011;67656;52.074;4.758;2023-05-07T03:52:22;31.65;;;15.27;;
78372;SDS011;67656;52.074;4.758;2023-05-07T03:57:33;31.00;;;14.25;;
78372;SDS011;67656;52.074;4.758;2023-05-07T04:02:59;27.15;;;13.93;;
78372;SDS011;67656;52.074;4.758;2023-05-07T04:08:02;28.38;;;13.88;;
78372;SDS011;67656;52.074;4.758;2023-05-07T04:13:10;24.60;;;12.77;;
78372;SDS011;67656;52.074;4.758;2023-05-07T04:18:11;27.60;;;13.55;;
78372;SDS011;67656;52.074;4.758;2023-05-07T04:23:14;24.58;;;12.55;;
78372;SDS011;67656;52.074;4.758;2023-05-07T04:28:15;29.13;;;13.15;;
78372;SDS011;67656;52.074;4.758;2023-05-07T04:33:16;26.45;;;13.02;;
78372;SDS011;67656;52.074;4.758;2023-05-07T04:38:17;22.48;;;12.40;;
78372;SDS011;67656;52.074;4.758;2023-05-07T04:43:18;27.02;;;12.27;;
78372;SDS011;67656;52.074;4.758;2023-05-07T04:48:23;25.83;;;12.95;;
78372;SDS011;67656;52.074;4.758;2023-05-07T04:53:25;26.65;;;13.15;;
78372;SDS011;67656;52.074;4.758;2023-05-07T04:58:27;23.63;;;12.95;;
78372;SDS011;67656;52.074;4.758;2023-05-07T05:03:28;28.52;;;13.13;;
78372;SDS011;67656;52.074;4.758;2023-05-07T05:08:29;25.08;;;13.10;;
78372;SDS011;67656;52.074;4.758;2023-05-07T05:13:31;28.70;;;13.05;;
78372;SDS011;67656;52.074;4.758;2023-05-07T05:18:32;28.70;;;13.77;;
78372;SDS011;67656;52.074;4.758;2023-05-07T05:23:32;25.10;;;13.27;;
78372;SDS011;67656;52.074;4.758;2023-05-07T05:28:33;26.55;;;12.80;;
78372;SDS011;67656;52.074;4.758;2023-05-07T05:33:34;24.42;;;13.07;;
78372;SDS011;67656;52.074;4.758;2023-05-07T05:38:37;26.92;;;13.60;;
78372;SDS011;67656;52.074;4.758;2023-05-07T05:43:38;25.17;;;12.95;;
78372;SDS011;67656;52.074;4.758;2023-05-07T05:48:38;25.02;;;12.65;;
78372;SDS011;67656;52.074;4.758;2023-05-07T05:53:40;27.33;;;13.75;;
78372;SDS011;67656;52.074;4.758;2023-05-07T05:58:40;24.73;;;13.48;;
78372;SDS011;67656;52.074;4.758;2023-05-07T06:03:42;27.20;;;13.95;;
78372;SDS011;67656;52.074;4.758;2023-05-07T06:08:47;29.25;;;14.88;;
78372;SDS011;67656;52.074;4.758;2023-05-07T06:13:52;30.70;;;15.10;;
78372;SDS011;67656;52.074;4.758;2023-05-07T06:18:52;30.35;;;15.13;;
78372;SDS011;67656;52.074;4.758;2023-05-07T06:23:53;34.90;;;16.70;;
78372;SDS011;67656;52.074;4.758;2023-05-07T06:28:54;33.30;;;16.90;;
78372;SDS011;67656;52.074;4.758;2023-05-07T06:33:54;37.08;;;17.35;;
78372;SDS011;67656;52.074;4.758;2023-05-07T06:38:55;34.03;;;16.85;;
78372;SDS011;67656;52.074;4.758;2023-05-07T06:43:55;30.15;;;15.73;;
78372;SDS011;67656;52.074;4.758;2023-05-07T06:49:12;30.67;;;15.98;;
78372;SDS011;67656;52.074;4.758;2023-05-07T06:54:12;32.65;;;15.80;;
78372;SDS011;67656;52.074;4.758;2023-05-07T06:59:14;33.42;;;16.63;;
78372;SDS011;67656;52.074;4.758;2023-05-07T07:04:15;29.13;;;15.95;;
78372;SDS011;67656;52.074;4.758;2023-05-07T07:09:19;34.15;;;16.77;;
78372;SDS011;67656;52.074;4.758;2023-05-07T07:14:19;29.90;;;15.30;;
78372;SDS011;67656;52.074;4.758;2023-05-07T07:19:23;33.08;;;16.40;;
78372;SDS011;67656;52.074;4.758;2023-05-07T07:24:28;33.05;;;17.38;;
78372;SDS011;67656;52.074;4.758;2023-05-07T07:29:32;31.35;;;15.27;;
78372;SDS011;67656;52.074;4.758;2023-05-07T07:34:32;29.13;;;15.60;;
78372;SDS011;67656;52.074;4.758;2023-05-07T07:39:35;26.60;;;15.05;;
78372;SDS011;67656;52.074;4.758;2023-05-07T07:44:36;30.17;;;16.08;;
78372;SDS011;67656;52.074;4.758;2023-05-07T07:49:41;24.95;;;15.00;;
78372;SDS011;67656;52.074;4.758;2023-05-07T07:54:44;31.02;;;15.45;;
78372;SDS011;67656;52.074;4.758;2023-05-07T07:59:55;28.65;;;14.68;;
78372;SDS011;67656;52.074;4.758;2023-05-07T08:05:03;24.38;;;13.63;;
78372;SDS011;67656;52.074;4.758;2023-05-07T08:10:04;22.55;;;11.98;;
78372;SDS011;67656;52.074;4.758;2023-05-07T08:15:07;17.98;;;10.98;;
78372;SDS011;67656;52.074;4.758;2023-05-07T08:20:09;16.60;;;10.02;;
78372;SDS011;67656;52.074;4.758;2023-05-07T08:25:12;14.27;;;8.63;;
78372;SDS011;67656;52.074;4.758;2023-05-07T08:36:04;11.77;;;8.07;;
78372;SDS011;67656;52.074;4.758;2023-05-07T08:41:15;10.80;;;7.90;;
78372;SDS011;67656;52.074;4.758;2023-05-07T08:46:19;11.20;;;7.60;;
78372;SDS011;67656;52.074;4.758;2023-05-07T08:51:22;11.95;;;8.27;;
78372;SDS011;67656;52.074;4.758;2023-05-07T08:56:23;11.30;;;7.72;;
78372;SDS011;67656;52.074;4.758;2023-05-07T09:01:25;12.43;;;7.60;;
78372;SDS011;67656;52.074;4.758;2023-05-07T09:06:27;11.70;;;6.63;;
78372;SDS011;67656;52.074;4.758;2023-05-07T09:11:28;10.82;;;6.32;;
78372;SDS011;67656;52.074;4.758;2023-05-07T09:16:31;8.35;;;5.20;;
78372;SDS011;67656;52.074;4.758;2023-05-07T09:21:33;10.80;;;6.10;;
78372;SDS011;67656;52.074;4.758;2023-05-07T09:26:37;9.35;;;6.20;;
78372;SDS011;67656;52.074;4.758;2023-05-07T09:31:39;10.40;;;6.10;;
78372;SDS011;67656;52.074;4.758;2023-05-07T09:36:45;10.75;;;6.80;;
78372;SDS011;67656;52.074;4.758;2023-05-07T09:41:51;12.43;;;6.55;;
78372;SDS011;67656;52.074;4.758;2023-05-07T09:47:07;11.18;;;6.28;;
78372;SDS011;67656;52.074;4.758;2023-05-07T09:52:17;8.68;;;5.63;;
78372;SDS011;67656;52.074;4.758;2023-05-07T09:57:24;8.52;;;5.35;;
78372;SDS011;67656;52.074;4.758;2023-05-07T10:02:31;8.77;;;5.95;;
78372;SDS011;67656;52.074;4.758;2023-05-07T10:07:35;10.77;;;6.55;;
78372;SDS011;67656;52.074;4.758;2023-05-07T10:12:40;12.15;;;6.90;;
78372;SDS011;67656;52.074;4.758;2023-05-07T10:17:47;9.38;;;6.78;;
78372;SDS011;67656;52.074;4.758;2023-05-07T10:22:49;12.00;;;5.70;;
78372;SDS011;67656;52.074;4.758;2023-05-07T10:27:57;10.50;;;6.00;;
78372;SDS011;67656;52.074;4.758;2023-05-07T10:33:01;10.40;;;6.28;;
78372;SDS011;67656;52.074;4.758;2023-05-07T10:38:05;10.27;;;6.38;;
78372;SDS011;67656;52.074;4.758;2023-05-07T10:43:09;9.27;;;4.85;;
78372;SDS011;67656;52.074;4.758;2023-05-07T10:48:16;6.55;;;3.90;;
78372;SDS011;67656;52.074;4.758;2023-05-07T10:53:24;9.88;;;4.30;;
78372;SDS011;67656;52.074;4.758;2023-05-07T10:58:37;8.20;;;4.15;;
78372;SDS011;67656;52.074;4.758;2023-05-07T11:09:15;7.35;;;3.85;;
78372;SDS011;67656;52.074;4.758;2023-05-07T11:19:47;9.07;;;4.78;;
78372;SDS011;67656;52.074;4.758;2023-05-07T11:24:51;9.00;;;5.20;;
78372;SDS011;67656;52.074;4.758;2023-05-07T11:29:52;9.47;;;5.47;;
78372;SDS011;67656;52.074;4.758;2023-05-07T11:34:53;6.22;;;5.00;;
78372;SDS011;67656;52.074;4.758;2023-05-07T11:40:05;9.45;;;5.20;;
78372;SDS011;67656;52.074;4.758;2023-05-07T11:45:07;8.43;;;5.53;;
78372;SDS011;67656;52.074;4.758;2023-05-07T11:50:08;8.77;;;5.20;;
78372;SDS011;67656;52.074;4.758;2023-05-07T11:55:08;6.05;;;4.70;;
78372;SDS011;67656;52.074;4.758;2023-05-07T12:00:09;7.18;;;4.80;;
78372;SDS011;67656;52.074;4.758;2023-05-07T12:05:16;8.82;;;4.25;;
78372;SDS011;67656;52.074;4.758;2023-05-07T12:10:16;7.00;;;4.23;;
78372;SDS011;67656;52.074;4.758;2023-05-07T12:15:17;7.05;;;4.32;;
78372;SDS011;67656;52.074;4.758;2023-05-07T12:20:17;5.38;;;3.70;;
78372;SDS011;67656;52.074;4.758;2023-05-07T12:25:19;6.03;;;3.23;;
78372;SDS011;67656;52.074;4.758;2023-05-07T12:30:19;6.47;;;3.55;;
78372;SDS011;67656;52.074;4.758;2023-05-07T12:35:29;7.40;;;4.28;;
78372;SDS011;67656;52.074;4.758;2023-05-07T12:40:41;8.88;;;6.18;;
78372;SDS011;67656;52.074;4.758;2023-05-07T12:50:43;10.50;;;6.97;;
78372;SDS011;67656;52.074;4.758;2023-05-07T12:55:45;13.80;;;7.75;;
78372;SDS011;67656;52.074;4.758;2023-05-07T13:05:48;11.00;;;7.90;;
78372;SDS011;67656;52.074;4.758;2023-05-07T13:10:49;12.93;;;7.80;;
78372;SDS011;67656;52.074;4.758;2023-05-07T13:15:49;13.30;;;8.23;;
78372;SDS011;67656;52.074;4.758;2023-05-07T13:20:50;10.55;;;7.07;;
78372;SDS011;67656;52.074;4.758;2023-05-07T13:25:50;10.38;;;7.22;;
78372;SDS011;67656;52.074;4.758;2023-05-07T13:30:51;11.18;;;7.35;;
78372;SDS011;67656;52.074;4.758;2023-05-07T13:35:52;13.73;;;8.43;;
78372;SDS011;67656;52.074;4.758;2023-05-07T13:40:53;10.75;;;5.60;;
78372;SDS011;67656;52.074;4.758;2023-05-07T13:45:53;3.20;;;2.15;;
78372;SDS011;67656;52.074;4.758;2023-05-07T13:50:53;9.07;;;3.05;;
78372;SDS011;67656;52.074;4.758;2023-05-07T13:55:54;11.30;;;4.43;;
78372;SDS011;67656;52.074;4.758;2023-05-07T14:00:54;12.95;;;4.38;;
78372;SDS011;67656;52.074;4.758;2023-05-07T14:05:54;11.63;;;5.55;;
78372;SDS011;67656;52.074;4.758;2023-05-07T14:10:55;16.08;;;5.62;;
78372;SDS011;67656;52.074;4.758;2023-05-07T14:15:55;13.68;;;4.68;;
78372;SDS011;67656;52.074;4.758;2023-05-07T14:20:56;12.38;;;5.18;;
78372;SDS011;67656;52.074;4.758;2023-05-07T14:25:56;10.38;;;5.88;;
78372;SDS011;67656;52.074;4.758;2023-05-07T14:30:57;14.05;;;6.22;;
78372;SDS011;67656;52.074;4.758;2023-05-07T14:35:57;11.60;;;5.90;;
78372;SDS011;67656;52.074;4.758;2023-05-07T14:40:57;13.35;;;6.28;;
78372;SDS011;67656;52.074;4.758;2023-05-07T14:45:58;18.05;;;9.20;;
78372;SDS011;67656;52.074;4.758;2023-05-07T14:50:58;14.05;;;6.30;;
78372;SDS011;67656;52.074;4.758;2023-05-07T14:55:58;8.23;;;4.90;;
78372;SDS011;67656;52.074;4.758;2023-05-07T15:00:59;9.43;;;4.95;;
78372;SDS011;67656;52.074;4.758;2023-05-07T15:05:59;10.25;;;5.70;;
78372;SDS011;67656;52.074;4.758;2023-05-07T15:11:00;10.35;;;5.75;;
78372;SDS011;67656;52.074;4.758;2023-05-07T15:16:00;14.05;;;7.15;;
78372;SDS011;67656;52.074;4.758;2023-05-07T15:21:00;20.67;;;10.38;;
78372;SDS011;67656;52.074;4.758;2023-05-07T15:26:01;23.58;;;12.65;;
78372;SDS011;67656;52.074;4.758;2023-05-07T15:31:01;22.95;;;12.15;;
78372;SDS011;67656;52.074;4.758;2023-05-07T15:36:02;18.45;;;11.20;;
78372;SDS011;67656;52.074;4.758;2023-05-07T15:41:02;23.65;;;11.63;;
78372;SDS011;67656;52.074;4.758;2023-05-07T15:46:02;21.17;;;12.05;;
78372;SDS011;67656;52.074;4.758;2023-05-07T15:51:03;20.05;;;11.30;;
78372;SDS011;67656;52.074;4.758;2023-05-07T15:56:03;19.10;;;10.55;;
78372;SDS011;67656;52.074;4.758;2023-05-07T16:01:03;18.55;;;10.60;;
78372;SDS011;67656;52.074;4.758;2023-05-07T16:06:04;15.70;;;9.88;;
78372;SDS011;67656;52.074;4.758;2023-05-07T16:11:05;16.70;;;9.65;;
78372;SDS011;67656;52.074;4.758;2023-05-07T16:16:05;18.85;;;10.80;;
78372;SDS011;67656;52.074;4.758;2023-05-07T16:21:05;21.67;;;11.23;;
78372;SDS011;67656;52.074;4.758;2023-05-07T16:26:06;19.42;;;10.77;;
78372;SDS011;67656;52.074;4.758;2023-05-07T16:31:07;19.27;;;10.40;;
78372;SDS011;67656;52.074;4.758;2023-05-07T16:36:07;22.02;;;11.48;;
78372;SDS011;67656;52.074;4.758;2023-05-07T16:41:08;19.35;;;10.30;;
78372;SDS011;67656;52.074;4.758;2023-05-07T16:46:09;20.05;;;10.45;;
78372;SDS011;67656;52.074;4.758;2023-05-07T16:51:09;18.30;;;10.15;;
78372;SDS011;67656;52.074;4.758;2023-05-07T16:56:09;17.23;;;9.27;;
78372;SDS011;67656;52.074;4.758;2023-05-07T17:01:09;18.13;;;10.68;;
78372;SDS011;67656;52.074;4.758;2023-05-07T17:06:10;19.73;;;10.90;;
78372;SDS011;67656;52.074;4.758;2023-05-07T17:11:10;19.27;;;10.57;;
78372;SDS011;67656;52.074;4.758;2023-05-07T17:16:11;19.88;;;11.25;;
78372;SDS011;67656;52.074;4.758;2023-05-07T17:21:11;21.30;;;11.30;;
78372;SDS011;67656;52.074;4.758;2023-05-07T17:26:12;19.13;;;10.75;;
78372;SDS011;67656;52.074;4.758;2023-05-07T17:31:13;23.05;;;11.57;;
78372;SDS011;67656;52.074;4.758;2023-05-07T17:36:13;19.75;;;11.20;;
78372;SDS011;67656;52.074;4.758;2023-05-07T17:41:13;22.95;;;11.55;;
78372;SDS011;67656;52.074;4.758;2023-05-07T17:46:14;19.30;;;11.68;;
78372;SDS011;67656;52.074;4.758;2023-05-07T17:51:14;24.58;;;13.05;;
78372;SDS011;67656;52.074;4.758;2023-05-07T17:56:14;27.77;;;13.75;;
78372;SDS011;67656;52.074;4.758;2023-05-07T18:01:15;27.60;;;13.20;;
78372;SDS011;67656;52.074;4.758;2023-05-07T18:06:15;26.00;;;13.57;;
78372;SDS011;67656;52.074;4.758;2023-05-07T18:11:15;27.00;;;14.95;;
78372;SDS011;67656;52.074;4.758;2023-05-07T18:16:19;31.00;;;14.48;;
78372;SDS011;67656;52.074;4.758;2023-05-07T18:21:19;26.90;;;12.60;;
78372;SDS011;67656;52.074;4.758;2023-05-07T18:26:19;23.52;;;11.52;;
78372;SDS011;67656;52.074;4.758;2023-05-07T18:31:20;19.58;;;10.70;;
78372;SDS011;67656;52.074;4.758;2023-05-07T18:36:20;18.88;;;10.68;;
78372;SDS011;67656;52.074;4.758;2023-05-07T18:41:21;21.17;;;10.90;;
78372;SDS011;67656;52.074;4.758;2023-05-07T18:46:21;21.73;;;10.80;;
78372;SDS011;67656;52.074;4.758;2023-05-07T18:51:21;20.40;;;10.93;;
78372;SDS011;67656;52.074;4.758;2023-05-07T18:56:22;19.50;;;10.43;;
78372;SDS011;67656;52.074;4.758;2023-05-07T19:01:22;20.06;;;10.46;;
78372;SDS011;67656;52.074;4.758;2023-05-07T19:06:22;20.77;;;9.65;;
78372;SDS011;67656;52.074;4.758;2023-05-07T19:11:23;21.17;;;10.40;;
78372;SDS011;67656;52.074;4.758;2023-05-07T19:16:23;20.08;;;11.20;;
78372;SDS011;67656;52.074;4.758;2023-05-07T19:21:23;19.60;;;10.65;;
78372;SDS011;67656;52.074;4.758;2023-05-07T19:26:24;16.92;;;9.73;;
78372;SDS011;67656;52.074;4.758;2023-05-07T19:31:24;16.80;;;9.15;;
78372;SDS011;67656;52.074;4.758;2023-05-07T19:36:26;15.77;;;7.95;;
78372;SDS011;67656;52.074;4.758;2023-05-07T19:41:27;12.35;;;7.28;;
78372;SDS011;67656;52.074;4.758;2023-05-07T19:46:27;14.75;;;7.20;;
78372;SDS011;67656;52.074;4.758;2023-05-07T19:51:27;13.00;;;7.38;;
78372;SDS011;67656;52.074;4.758;2023-05-07T19:56:28;15.34;;;7.34;;
78372;SDS011;67656;52.074;4.758;2023-05-07T20:01:28;14.42;;;8.08;;
78372;SDS011;67656;52.074;4.758;2023-05-07T20:06:28;13.55;;;7.05;;
78372;SDS011;67656;52.074;4.758;2023-05-07T20:11:29;14.23;;;7.60;;
78372;SDS011;67656;52.074;4.758;2023-05-07T20:16:29;13.32;;;7.18;;
78372;SDS011;67656;52.074;4.758;2023-05-07T20:21:30;11.13;;;6.63;;
78372;SDS011;67656;52.074;4.758;2023-05-07T20:26:31;13.32;;;7.38;;
78372;SDS011;67656;52.074;4.758;2023-05-07T20:31:31;12.02;;;6.93;;
78372;SDS011;67656;52.074;4.758;2023-05-07T20:36:32;13.25;;;7.40;;
78372;SDS011;67656;52.074;4.758;2023-05-07T20:41:32;16.45;;;8.32;;
78372;SDS011;67656;52.074;4.758;2023-05-07T20:46:33;14.48;;;8.07;;
78372;SDS011;67656;52.074;4.758;2023-05-07T20:51:33;15.25;;;7.72;;
78372;SDS011;67656;52.074;4.758;2023-05-07T20:56:34;15.07;;;8.13;;
78372;SDS011;67656;52.074;4.758;2023-05-07T21:01:34;15.10;;;8.80;;
78372;SDS011;67656;52.074;4.758;2023-05-07T21:06:34;19.92;;;9.95;;
78372;SDS011;67656;52.074;4.758;2023-05-07T21:11:35;24.08;;;10.35;;
78372;SDS011;67656;52.074;4.758;2023-05-07T21:16:35;19.70;;;9.45;;
78372;SDS011;67656;52.074;4.758;2023-05-07T21:21:35;20.80;;;10.20;;
78372;SDS011;67656;52.074;4.758;2023-05-07T21:26:36;21.67;;;9.98;;
78372;SDS011;67656;52.074;4.758;2023-05-07T21:31:36;21.90;;;10.52;;
78372;SDS011;67656;52.074;4.758;2023-05-07T21:36:37;23.85;;;10.25;;
78372;SDS011;67656;52.074;4.758;2023-05-07T21:41:37;27.20;;;11.35;;
78372;SDS011;67656;52.074;4.758;2023-05-07T21:46:37;25.67;;;10.68;;
78372;SDS011;67656;52.074;4.758;2023-05-07T21:51:38;25.70;;;10.85;;
78372;SDS011;67656;52.074;4.758;2023-05-07T21:56:39;31.60;;;12.13;;
78372;SDS011;67656;52.074;4.758;2023-05-07T22:01:39;29.10;;;10.90;;
78372;SDS011;67656;52.074;4.758;2023-05-07T22:06:40;27.33;;;10.93;;
78372;SDS011;67656;52.074;4.758;2023-05-07T22:11:40;33.35;;;12.48;;
78372;SDS011;67656;52.074;4.758;2023-05-07T22:16:40;30.95;;;11.90;;
78372;SDS011;67656;52.074;4.758;2023-05-07T22:21:41;31.23;;;11.70;;
78372;SDS011;67656;52.074;4.758;2023-05-07T22:26:41;33.60;;;11.85;;
78372;SDS011;67656;52.074;4.758;2023-05-07T22:31:41;29.17;;;11.88;;
78372;SDS011;67656;52.074;4.758;2023-05-07T22:36:42;34.38;;;11.95;;
78372;SDS011;67656;52.074;4.758;2023-05-07T22:41:42;35.33;;;12.02;;
78372;SDS011;67656;52.074;4.758;2023-05-07T22:46:43;32.13;;;11.45;;
78372;SDS011;67656;52.074;4.758;2023-05-07T22:51:43;37.90;;;13.07;;
78372;SDS011;67656;52.074;4.758;2023-05-07T22:56:43;36.10;;;12.93;;
78372;SDS011;67656;52.074;4.758;2023-05-07T23:01:44;30.63;;;11.52;;
78372;SDS011;67656;52.074;4.758;2023-05-07T23:06:45;31.38;;;12.15;;
78372;SDS011;67656;52.074;4.758;2023-05-07T23:11:45;30.42;;;11.57;;
78372;SDS011;67656;52.074;4.758;2023-05-07T23:16:46;29.85;;;11.05;;
78372;SDS011;67656;52.074;4.758;2023-05-07T23:21:46;32.85;;;11.63;;
78372;SDS011;67656;52.074;4.758;2023-05-07T23:26:46;34.05;;;12.60;;
78372;SDS011;67656;52.074;4.758;2023-05-07T23:31:47;31.58;;;11.78;;
78372;SDS011;67656;52.074;4.758;2023-05-07T23:36:47;37.42;;;12.70;;
78372;SDS011;67656;52.074;4.758;2023-05-07T23:41:47;34.80;;;11.95;;
78372;SDS011;67656;52.074;4.758;2023-05-07T23:46:48;35.55;;;11.38;;
78372;SDS011;67656;52.074;4.758;2023-05-07T23:51:48;37.58;;;13.25;;
78372;SDS011;67656;52.074;4.758;2023-05-07T23:56:48;39.48;;;13.26;;
